Time;durP1;ratioP1;P1;durP2;ratioP2;P2;SDS_P1;SDS_P2;PMS_P1;PMS_P2;Temp;Humidity;BMP_temperature;BMP_pressure;BME280_temperature;BME280_humidity;BME280_pressure;Samples;Min_cycle;Max_cycle;Signal;HPM_P1;HPM_P2
2024/02/24 00:00:33;;;;;;;1.20;1.10;;;;;;;;;;5065922;28;20055;-63
2024/02/24 00:02:59;;;;;;;1.52;1.00;;;;;;;;;;5062025;28;20068;-63
2024/02/24 00:05:26;;;;;;;1.33;0.88;;;;;;;;;;5065134;28;20044;-63
2024/02/24 00:07:52;;;;;;;2.60;1.55;;;;;;;;;;5064465;28;20071;-63
2024/02/24 00:10:19;;;;;;;1.55;1.05;;;;;;;;;;5064380;28;20045;-63
2024/02/24 00:12:45;;;;;;;1.20;1.02;;;;;;;;;;5063357;28;20048;-63
2024/02/24 00:15:11;;;;;;;2.13;1.05;;;;;;;;;;5061996;28;20048;-63
2024/02/24 00:17:40;;;;;;;1.60;0.98;;;;;;;;;;5062989;28;20049;-63
2024/02/24 00:20:08;;;;;;;2.67;1.00;;;;;;;;;;5060407;28;20037;-63
2024/02/24 00:22:35;;;;;;;2.45;1.00;;;;;;;;;;5066330;28;20057;-63
2024/02/24 00:25:02;;;;;;;1.85;1.00;;;;;;;;;;5063083;28;20048;-63
2024/02/24 00:27:29;;;;;;;2.17;1.40;;;;;;;;;;5044663;28;20040;-63
2024/02/24 00:29:55;;;;;;;2.40;1.00;;;;;;;;;;5066239;28;20036;-63
2024/02/24 00:32:21;;;;;;;2.10;1.02;;;;;;;;;;5059846;28;20048;-63
2024/02/24 00:34:47;;;;;;;2.42;1.13;;;;;;;;;;5065213;28;20066;-63
2024/02/24 00:37:13;;;;;;;3.20;1.45;;;;;;;;;;5061906;28;20067;-63
2024/02/24 00:39:39;;;;;;;2.63;1.08;;;;;;;;;;5066399;28;20051;-63
2024/02/24 00:42:07;;;;;;;1.58;0.88;;;;;;;;;;5066666;28;20039;-62
2024/02/24 00:44:33;;;;;;;2.00;1.00;;;;;;;;;;5070108;28;20040;-63
2024/02/24 00:46:59;;;;;;;2.78;1.15;;;;;;;;;;5065919;28;20066;-63
2024/02/24 00:49:25;;;;;;;4.22;2.65;;;;;;;;;;5068939;28;20032;-63
2024/02/24 00:51:51;;;;;;;4.72;1.88;;;;;;;;;;5068239;28;20036;-63
2024/02/24 00:54:18;;;;;;;3.53;1.10;;;;;;;;;;5071070;28;20497;-63
2024/02/24 00:56:44;;;;;;;2.47;1.00;;;;;;;;;;5054128;28;20055;-63
2024/02/24 00:59:10;;;;;;;1.60;1.00;;;;;;;;;;5070070;28;20036;-63
2024/02/24 01:01:36;;;;;;;2.28;1.00;;;;;;;;;;5070333;28;20059;-63
2024/02/24 01:04:03;;;;;;;2.88;0.85;;;;;;;;;;5065591;28;20063;-63
2024/02/24 01:06:29;;;;;;;2.58;1.00;;;;;;;;;;5068012;28;20040;-63
2024/02/24 01:08:55;;;;;;;3.60;1.70;;;;;;;;;;5066766;28;20397;-63
2024/02/24 01:11:21;;;;;;;1.10;0.88;;;;;;;;;;5065980;28;20044;-63
2024/02/24 01:13:47;;;;;;;2.08;0.98;;;;;;;;;;5064516;28;20048;-63
2024/02/24 01:16:13;;;;;;;3.13;0.98;;;;;;;;;;5065496;28;20047;-63
2024/02/24 01:18:39;;;;;;;1.60;0.88;;;;;;;;;;5065834;28;20044;-62
2024/02/24 01:21:05;;;;;;;2.15;1.20;;;;;;;;;;5064373;28;20055;-63
2024/02/24 01:23:32;;;;;;;1.40;0.95;;;;;;;;;;5061651;28;20068;-62
2024/02/24 01:25:58;;;;;;;2.95;1.10;;;;;;;;;;5063159;28;20041;-63
2024/02/24 01:28:24;;;;;;;3.22;1.10;;;;;;;;;;5065434;28;20053;-62
2024/02/24 01:30:50;;;;;;;1.88;1.00;;;;;;;;;;5063575;28;20056;-63
2024/02/24 01:33:16;;;;;;;1.58;1.00;;;;;;;;;;5060899;28;20053;-63
2024/02/24 01:35:43;;;;;;;2.33;1.20;;;;;;;;;;5060239;28;20041;-63
2024/02/24 01:38:09;;;;;;;1.52;0.98;;;;;;;;;;5066523;28;20048;-63
2024/02/24 01:40:35;;;;;;;2.03;0.98;;;;;;;;;;5068882;28;20053;-63
2024/02/24 01:43:02;;;;;;;1.10;1.00;;;;;;;;;;5059536;28;20041;-63
2024/02/24 01:45:28;;;;;;;1.15;1.00;;;;;;;;;;5063926;28;20055;-63
2024/02/24 01:47:56;;;;;;;1.90;1.20;;;;;;;;;;5064474;28;20049;-63
2024/02/24 01:50:23;;;;;;;3.78;1.40;;;;;;;;;;5067290;28;20040;-62
2024/02/24 01:52:50;;;;;;;3.97;1.17;;;;;;;;;;5052446;28;20067;-63
2024/02/24 01:55:17;;;;;;;2.25;1.15;;;;;;;;;;5067576;28;20044;-63
2024/02/24 01:57:44;;;;;;;2.75;1.20;;;;;;;;;;5067982;28;20408;-63
2024/02/24 02:00:13;;;;;;;5.97;1.30;;;;;;;;;;5067146;28;20048;-63
2024/02/24 02:02:42;;;;;;;1.85;1.20;;;;;;;;;;5065037;28;20513;-63
2024/02/24 02:05:11;;;;;;;1.17;1.08;;;;;;;;;;5066474;28;20046;-63
2024/02/24 02:07:37;;;;;;;1.92;1.40;;;;;;;;;;5067008;28;20048;-64
2024/02/24 02:10:05;;;;;;;3.22;1.25;;;;;;;;;;5063978;28;20527;-63
2024/02/24 02:12:34;;;;;;;1.98;1.13;;;;;;;;;;5067231;28;20043;-62
2024/02/24 02:15:00;;;;;;;2.00;1.10;;;;;;;;;;5062962;28;20501;-63
2024/02/24 02:17:27;;;;;;;2.63;1.20;;;;;;;;;;5065011;28;20048;-62
2024/02/24 02:19:53;;;;;;;3.13;1.30;;;;;;;;;;5064213;28;20049;-63
2024/02/24 02:22:23;;;;;;;3.45;1.83;;;;;;;;;;5064017;28;20044;-62
2024/02/24 02:24:49;;;;;;;3.72;1.95;;;;;;;;;;5061211;28;20045;-62
2024/02/24 02:27:15;;;;;;;3.20;1.65;;;;;;;;;;5064321;28;20059;-62
2024/02/24 02:29:41;;;;;;;5.50;2.00;;;;;;;;;;5068675;28;20047;-63
2024/02/24 02:32:10;;;;;;;4.18;2.08;;;;;;;;;;5063476;28;20497;-62
2024/02/24 02:34:36;;;;;;;5.15;1.95;;;;;;;;;;5059338;28;20053;-62
2024/02/24 02:37:02;;;;;;;2.88;1.90;;;;;;;;;;5059838;28;20041;-62
2024/02/24 02:39:29;;;;;;;7.68;2.67;;;;;;;;;;5068288;28;20045;-62
2024/02/24 02:41:55;;;;;;;4.97;2.20;;;;;;;;;;5058877;28;20056;-62
2024/02/24 02:44:21;;;;;;;1.98;1.65;;;;;;;;;;5062243;28;20067;-62
2024/02/24 02:46:48;;;;;;;2.40;1.77;;;;;;;;;;5063239;28;20413;-62
2024/02/24 02:49:18;;;;;;;4.40;2.03;;;;;;;;;;5067435;28;20048;-63
2024/02/24 02:51:44;;;;;;;6.43;2.30;;;;;;;;;;5065924;28;20044;-62
2024/02/24 02:54:10;;;;;;;1.90;1.50;;;;;;;;;;5066881;28;20435;-62
2024/02/24 02:56:36;;;;;;;4.13;2.20;;;;;;;;;;5067297;28;20048;-62
2024/02/24 02:59:03;;;;;;;5.18;2.13;;;;;;;;;;5064997;28;20040;-62
2024/02/24 03:01:29;;;;;;;4.20;1.92;;;;;;;;;;5066326;28;20055;-63
2024/02/24 03:03:55;;;;;;;6.00;2.30;;;;;;;;;;5063216;28;20060;-62
2024/02/24 03:06:21;;;;;;;4.57;1.77;;;;;;;;;;5065390;28;20044;-62
2024/02/24 03:08:47;;;;;;;3.05;1.85;;;;;;;;;;5066398;28;20048;-62
2024/02/24 03:11:17;;;;;;;5.88;1.95;;;;;;;;;;5066064;28;20049;-62
2024/02/24 03:13:46;;;;;;;;;;;;;;;;;;5064678;28;20519;-62
2024/02/24 03:16:12;;;;;;;2.83;1.77;;;;;;;;;;5063917;28;20416;-62
2024/02/24 03:18:38;;;;;;;7.85;2.10;;;;;;;;;;5067426;28;20056;-63
2024/02/24 03:21:04;;;;;;;3.90;1.85;;;;;;;;;;5048986;28;20056;-63
2024/02/24 03:23:30;;;;;;;3.05;1.70;;;;;;;;;;5065029;28;20666;-63
2024/02/24 03:25:56;;;;;;;3.20;1.90;;;;;;;;;;5067732;28;20040;-62
2024/02/24 03:28:22;;;;;;;3.25;1.70;;;;;;;;;;5068580;28;20417;-62
2024/02/24 03:30:48;;;;;;;5.50;1.88;;;;;;;;;;5061847;28;20406;-62
2024/02/24 03:33:14;;;;;;;4.28;1.95;;;;;;;;;;5064405;28;20378;-62
2024/02/24 03:35:40;;;;;;;4.88;1.70;;;;;;;;;;5056754;28;20049;-62
2024/02/24 03:38:06;;;;;;;2.90;1.70;;;;;;;;;;5074783;28;20041;-62
2024/02/24 03:40:33;;;;;;;2.70;1.40;;;;;;;;;;5082026;22;20044;-66
2024/02/24 03:42:59;;;;;;;3.70;1.67;;;;;;;;;;5081694;28;20049;-65
2024/02/24 03:45:25;;;;;;;3.45;1.67;;;;;;;;;;5097865;28;20050;-65
2024/02/24 03:47:51;;;;;;;3.58;2.33;;;;;;;;;;5077375;28;20125;-65
2024/02/24 03:50:17;;;;;;;3.90;2.22;;;;;;;;;;5084364;28;20048;-65
2024/02/24 03:52:44;;;;;;;2.78;1.80;;;;;;;;;;5077215;28;20041;-65
2024/02/24 03:55:10;;;;;;;2.47;1.88;;;;;;;;;;5074227;28;20052;-65
2024/02/24 03:57:36;;;;;;;3.22;1.33;;;;;;;;;;5079120;28;20423;-65
2024/02/24 04:00:04;;;;;;;3.17;1.45;;;;;;;;;;5061612;28;20048;-65
2024/02/24 04:02:41;;;;;;;3.13;1.80;;;;;;;;;;5075181;28;20052;-65
2024/02/24 04:05:07;;;;;;;2.67;1.90;;;;;;;;;;5078468;28;20059;-64
2024/02/24 04:07:33;;;;;;;3.30;2.45;;;;;;;;;;5081304;28;20278;-64
2024/02/24 04:09:59;;;;;;;3.95;1.70;;;;;;;;;;5060485;28;20397;-64
2024/02/24 04:12:25;;;;;;;3.17;1.63;;;;;;;;;;5075301;28;20501;-65
2024/02/24 04:14:52;;;;;;;2.97;1.70;;;;;;;;;;5064370;28;20055;-64
2024/02/24 04:17:18;;;;;;;6.03;1.85;;;;;;;;;;5067110;28;20040;-64
2024/02/24 04:19:44;;;;;;;2.40;1.20;;;;;;;;;;5078313;28;20044;-65
2024/02/24 04:22:10;;;;;;;2.90;1.58;;;;;;;;;;5077878;28;20413;-65
2024/02/24 04:24:36;;;;;;;2.80;1.52;;;;;;;;;;5076584;28;20033;-65
2024/02/24 04:27:02;;;;;;;2.22;1.55;;;;;;;;;;5076197;28;20048;-65
2024/02/24 04:29:28;;;;;;;2.70;1.40;;;;;;;;;;5080095;28;20135;-65
2024/02/24 04:31:55;;;;;;;3.35;1.48;;;;;;;;;;5073638;28;20047;-65
2024/02/24 04:34:21;;;;;;;3.67;1.73;;;;;;;;;;5077125;28;20059;-65
2024/02/24 04:36:47;;;;;;;2.72;1.63;;;;;;;;;;5075495;28;20041;-65
2024/02/24 04:39:14;;;;;;;2.47;1.80;;;;;;;;;;5077718;28;20044;-65
2024/02/24 04:41:40;;;;;;;3.40;1.38;;;;;;;;;;5073324;28;20401;-65
2024/02/24 04:44:06;;;;;;;2.38;1.38;;;;;;;;;;5058264;28;20028;-64
2024/02/24 04:46:34;;;;;;;2.72;1.60;;;;;;;;;;5081533;28;20055;-65
2024/02/24 04:49:00;;;;;;;5.80;1.70;;;;;;;;;;5080532;28;20052;-66
2024/02/24 04:51:26;;;;;;;3.90;2.03;;;;;;;;;;5081128;28;20032;-66
2024/02/24 04:53:52;;;;;;;2.45;1.48;;;;;;;;;;5077574;28;20036;-67
2024/02/24 04:56:18;;;;;;;6.30;1.50;;;;;;;;;;5082221;28;20048;-65
2024/02/24 04:58:45;;;;;;;2.83;1.90;;;;;;;;;;5080739;28;20051;-65
2024/02/24 05:01:11;;;;;;;3.55;1.80;;;;;;;;;;5077038;28;20033;-65
2024/02/24 05:03:37;;;;;;;5.70;1.83;;;;;;;;;;5077438;28;20041;-66
2024/02/24 05:06:05;;;;;;;1.92;1.60;;;;;;;;;;5078107;28;20440;-66
2024/02/24 05:08:33;;;;;;;2.22;1.58;;;;;;;;;;5074701;28;20032;-66
2024/02/24 05:11:00;;;;;;;3.38;1.80;;;;;;;;;;5076410;28;20051;-65
2024/02/24 05:13:26;;;;;;;1.85;1.58;;;;;;;;;;5076049;28;20037;-65
2024/02/24 05:15:53;;;;;;;4.38;1.63;;;;;;;;;;5078061;28;20044;-65
2024/02/24 05:18:19;;;;;;;2.78;1.45;;;;;;;;;;5081733;28;20547;-65
2024/02/24 05:20:45;;;;;;;2.22;1.58;;;;;;;;;;5077754;28;20055;-65
2024/02/24 05:23:11;;;;;;;4.30;1.88;;;;;;;;;;5083961;28;20049;-65
2024/02/24 05:25:37;;;;;;;3.10;1.38;;;;;;;;;;5080255;28;20044;-65
2024/02/24 05:28:04;;;;;;;2.80;1.80;;;;;;;;;;5081666;28;20401;-66
2024/02/24 05:30:30;;;;;;;2.50;1.67;;;;;;;;;;5085273;28;20686;-65
2024/02/24 05:32:56;;;;;;;4.57;2.00;;;;;;;;;;5080410;28;20511;-65
2024/02/24 05:35:22;;;;;;;4.90;1.80;;;;;;;;;;5061697;28;20044;-65
2024/02/24 05:37:48;;;;;;;3.00;1.67;;;;;;;;;;5075971;28;20420;-65
2024/02/24 05:40:15;;;;;;;3.70;1.85;;;;;;;;;;5086491;28;20032;-65
2024/02/24 05:42:41;;;;;;;3.83;1.90;;;;;;;;;;5066503;28;20036;-65
2024/02/24 05:45:07;;;;;;;3.42;1.80;;;;;;;;;;5084576;28;20048;-65
2024/02/24 05:47:37;;;;;;;2.95;2.05;;;;;;;;;;5080991;28;20047;-65
2024/02/24 05:50:04;;;;;;;2.08;1.50;;;;;;;;;;5081279;28;20047;-64
2024/02/24 05:52:30;;;;;;;3.85;1.70;;;;;;;;;;5081803;28;20504;-65
2024/02/24 05:54:56;;;;;;;2.83;1.70;;;;;;;;;;5081927;28;20044;-65
2024/02/24 05:57:22;;;;;;;3.40;1.98;;;;;;;;;;5084502;28;20047;-64
2024/02/24 05:59:48;;;;;;;3.88;1.70;;;;;;;;;;5064991;28;20043;-64
2024/02/24 06:02:14;;;;;;;3.22;1.85;;;;;;;;;;5079928;28;20396;-65
2024/02/24 06:04:40;;;;;;;4.95;1.80;;;;;;;;;;5062097;28;20028;-66
2024/02/24 06:07:06;;;;;;;3.72;2.03;;;;;;;;;;5076724;28;20032;-61
2024/02/24 06:09:32;;;;;;;4.07;2.00;;;;;;;;;;5082966;28;20031;-61
2024/02/24 06:11:58;;;;;;;3.22;2.00;;;;;;;;;;5078994;28;20039;-60
2024/02/24 06:14:24;;;;;;;2.95;1.60;;;;;;;;;;5078561;28;20485;-61
2024/02/24 06:16:50;;;;;;;2.03;1.80;;;;;;;;;;5081149;28;20035;-61
2024/02/24 06:19:16;;;;;;;4.10;1.77;;;;;;;;;;5081320;28;20031;-61
2024/02/24 06:21:42;;;;;;;3.63;1.48;;;;;;;;;;5079267;28;20043;-61
2024/02/24 06:24:09;;;;;;;2.17;1.60;;;;;;;;;;5082212;28;20413;-61
2024/02/24 06:26:35;;;;;;;3.08;1.80;;;;;;;;;;5077446;28;20044;-62
2024/02/24 06:29:01;;;;;;;3.03;1.70;;;;;;;;;;5080288;28;20477;-61
2024/02/24 06:31:27;;;;;;;2.20;1.58;;;;;;;;;;5080650;28;20051;-63
2024/02/24 06:33:53;;;;;;;1.90;1.52;;;;;;;;;;5074401;28;20037;-62
2024/02/24 06:36:19;;;;;;;3.08;1.80;;;;;;;;;;5073406;28;20052;-62
2024/02/24 06:38:45;;;;;;;2.33;1.55;;;;;;;;;;5074399;28;20032;-61
2024/02/24 06:41:12;;;;;;;2.97;2.10;;;;;;;;;;5083574;28;20055;-60
2024/02/24 06:43:38;;;;;;;3.45;2.10;;;;;;;;;;5060791;28;20048;-60
2024/02/24 06:46:04;;;;;;;3.13;1.70;;;;;;;;;;5078295;28;20051;-60
2024/02/24 06:48:30;;;;;;;2.90;1.75;;;;;;;;;;5072745;28;20050;-60
2024/02/24 06:50:56;;;;;;;3.78;1.58;;;;;;;;;;5072875;28;20048;-60
2024/02/24 06:53:22;;;;;;;3.03;1.30;;;;;;;;;;5090239;28;20032;-60
2024/02/24 06:55:48;;;;;;;2.08;1.27;;;;;;;;;;5057039;28;20055;-61
2024/02/24 06:58:14;;;;;;;2.42;1.30;;;;;;;;;;5081851;28;20044;-61
2024/02/24 07:00:40;;;;;;;1.80;1.30;;;;;;;;;;5072506;28;20048;-61
2024/02/24 07:03:07;;;;;;;1.58;1.27;;;;;;;;;;5078792;28;20044;-62
2024/02/24 07:05:33;;;;;;;4.22;2.70;;;;;;;;;;5064116;28;20059;-61
2024/02/24 07:07:59;;;;;;;2.30;1.55;;;;;;;;;;5070120;28;20028;-61
2024/02/24 07:10:25;;;;;;;3.13;1.52;;;;;;;;;;5067431;28;20055;-62
2024/02/24 07:12:51;;;;;;;3.28;1.60;;;;;;;;;;5076125;28;20040;-61
2024/02/24 07:15:17;;;;;;;3.05;1.92;;;;;;;;;;5070269;28;20052;-61
2024/02/24 07:17:43;;;;;;;4.55;1.40;;;;;;;;;;5068415;28;20051;-60
2024/02/24 07:20:10;;;;;;;1.65;1.00;;;;;;;;;;5057423;28;20044;-62
2024/02/24 07:22:36;;;;;;;1.85;1.27;;;;;;;;;;5058580;28;20044;-62
2024/02/24 07:25:03;;;;;;;2.35;1.00;;;;;;;;;;5071319;28;20409;-61
2024/02/24 07:27:29;;;;;;;1.10;1.00;;;;;;;;;;5069395;28;20075;-62
2024/02/24 07:29:55;;;;;;;1.67;1.08;;;;;;;;;;5067666;28;20036;-62
2024/02/24 07:32:21;;;;;;;2.55;1.08;;;;;;;;;;5068406;28;20037;-64
2024/02/24 07:34:48;;;;;;;1.48;0.90;;;;;;;;;;5067877;28;20048;-61
2024/02/24 07:37:14;;;;;;;1.88;0.80;;;;;;;;;;5054175;28;20028;-62
2024/02/24 07:39:40;;;;;;;0.85;0.80;;;;;;;;;;5068093;28;20045;-61
2024/02/24 07:42:06;;;;;;;1.10;0.80;;;;;;;;;;5055241;28;20047;-62
2024/02/24 07:44:32;;;;;;;2.05;1.00;;;;;;;;;;5069225;28;20614;-61
2024/02/24 07:46:58;;;;;;;1.20;1.10;;;;;;;;;;5066817;28;20500;-60
2024/02/24 07:49:24;;;;;;;1.45;0.88;;;;;;;;;;5044609;28;20040;-61
2024/02/24 07:51:51;;;;;;;0.90;0.90;;;;;;;;;;5065337;28;20044;-61
2024/02/24 07:54:17;;;;;;;1.25;0.95;;;;;;;;;;5074153;28;20040;-62
2024/02/24 07:56:43;;;;;;;0.88;0.88;;;;;;;;;;5070321;28;20033;-62
2024/02/24 07:59:09;;;;;;;1.77;0.80;;;;;;;;;;5059946;28;20048;-65
2024/02/24 08:01:35;;;;;;;0.85;0.85;;;;;;;;;;5065935;28;20047;-63
2024/02/24 08:04:01;;;;;;;1.40;0.90;;;;;;;;;;5070084;28;20032;-64
2024/02/24 08:06:27;;;;;;;1.20;0.90;;;;;;;;;;5058545;28;20378;-62
2024/02/24 08:08:54;;;;;;;3.58;1.60;;;;;;;;;;5066345;28;20427;-61
2024/02/24 08:11:21;;;;;;;1.13;0.98;;;;;;;;;;5065112;28;20055;-60
2024/02/24 08:13:47;;;;;;;1.00;0.95;;;;;;;;;;5067249;28;20029;-61
2024/02/24 08:16:13;;;;;;;0.82;0.82;;;;;;;;;;5063887;28;20424;-61
2024/02/24 08:18:39;;;;;;;1.35;0.95;;;;;;;;;;5066940;28;20626;-61
2024/02/24 08:21:06;;;;;;;1.02;0.90;;;;;;;;;;5062199;28;20044;-61
2024/02/24 08:23:34;;;;;;;1.23;1.00;;;;;;;;;;5067453;28;20051;-61
2024/02/24 08:26:00;;;;;;;1.30;1.02;;;;;;;;;;5054928;28;20032;-61
2024/02/24 08:28:27;;;;;;;2.13;1.70;;;;;;;;;;5056631;28;20505;-61
2024/02/24 08:30:53;;;;;;;3.25;1.55;;;;;;;;;;5068504;28;20037;-60
2024/02/24 08:33:22;;;;;;;12.88;2.20;;;;;;;;;;5072378;28;20048;-61
2024/02/24 08:35:49;;;;;;;;;;;;;;;;;;5063100;28;20044;-61
2024/02/24 08:38:16;;;;;;;2.58;1.10;;;;;;;;;;5063233;28;20455;-61
2024/02/24 08:40:43;;;;;;;1.05;0.90;;;;;;;;;;5073356;28;20048;-59
2024/02/24 08:43:09;;;;;;;1.45;1.13;;;;;;;;;;5068833;28;20389;-60
2024/02/24 08:45:35;;;;;;;3.72;2.30;;;;;;;;;;5079550;28;20513;-61
2024/02/24 08:48:01;;;;;;;3.92;2.10;;;;;;;;;;5069907;28;20412;-60
2024/02/24 08:50:27;;;;;;;3.00;2.03;;;;;;;;;;5073236;28;20050;-60
2024/02/24 08:52:53;;;;;;;2.83;1.70;;;;;;;;;;5079835;28;20024;-60
2024/02/24 08:55:20;;;;;;;1.80;0.90;;;;;;;;;;5044639;28;20044;-61
2024/02/24 08:57:47;;;;;;;1.70;1.08;;;;;;;;;;5074179;28;20060;-61
2024/02/24 09:00:13;;;;;;;1.10;0.80;;;;;;;;;;5091073;28;20419;-60
2024/02/24 09:02:39;;;;;;;2.20;1.00;;;;;;;;;;5060133;28;20052;-61
2024/02/24 09:05:06;;;;;;;0.82;0.82;;;;;;;;;;5073734;28;20051;-61
2024/02/24 09:07:32;;;;;;;1.13;0.77;;;;;;;;;;5072743;28;20024;-62
2024/02/24 09:09:58;;;;;;;0.90;0.82;;;;;;;;;;5072601;28;20048;-61
2024/02/24 09:12:25;;;;;;;1.30;0.75;;;;;;;;;;5064427;28;20448;-61
2024/02/24 09:14:51;;;;;;;0.80;0.70;;;;;;;;;;5073921;28;20390;-61
2024/02/24 09:17:17;;;;;;;0.55;0.50;;;;;;;;;;5072347;28;20480;-60
2024/02/24 09:19:43;;;;;;;1.65;0.70;;;;;;;;;;5072839;28;20036;-61
2024/02/24 09:22:12;;;;;;;0.50;0.40;;;;;;;;;;5089749;28;20045;-61
2024/02/24 09:24:39;;;;;;;6.65;1.00;;;;;;;;;;5078256;28;20040;-61
2024/02/24 09:27:05;;;;;;;5.15;0.65;;;;;;;;;;5079314;28;20445;-62
2024/02/24 09:29:31;;;;;;;5.50;0.80;;;;;;;;;;5065923;28;20040;-61
2024/02/24 09:31:57;;;;;;;1.75;0.90;;;;;;;;;;5073225;28;20504;-62
2024/02/24 09:34:23;;;;;;;2.85;1.10;;;;;;;;;;5074665;28;20033;-61
2024/02/24 09:36:49;;;;;;;1.10;0.50;;;;;;;;;;5055717;28;20050;-63
2024/02/24 09:39:16;;;;;;;1.55;0.70;;;;;;;;;;5073459;28;20044;-62
2024/02/24 09:41:42;;;;;;;4.03;0.60;;;;;;;;;;5071895;28;20519;-62
2024/02/24 09:44:09;;;;;;;1.13;0.90;;;;;;;;;;5072459;28;20031;-62
2024/02/24 09:46:36;;;;;;;1.73;1.30;;;;;;;;;;5073425;28;20029;-62
2024/02/24 09:49:03;;;;;;;0.82;0.70;;;;;;;;;;5072156;28;20037;-63
2024/02/24 09:51:29;;;;;;;0.63;0.63;;;;;;;;;;5076819;28;20043;-62
2024/02/24 09:53:57;;;;;;;2.90;1.00;;;;;;;;;;5074870;28;20493;-62
2024/02/24 09:56:25;;;;;;;1.58;0.73;;;;;;;;;;5073965;28;20028;-63
2024/02/24 09:58:53;;;;;;;1.30;1.10;;;;;;;;;;5078754;28;20029;-62
2024/02/24 10:01:19;;;;;;;1.40;0.60;;;;;;;;;;5052879;28;20424;-63
2024/02/24 10:03:48;;;;;;;1.45;0.70;;;;;;;;;;5073517;28;20063;-65
2024/02/24 10:06:14;;;;;;;1.58;0.70;;;;;;;;;;5089724;28;20040;-62
2024/02/24 10:08:40;;;;;;;1.67;0.55;;;;;;;;;;5056030;28;20033;-63
2024/02/24 10:11:06;;;;;;;0.90;0.60;;;;;;;;;;5056371;28;20047;-60
2024/02/24 10:13:32;;;;;;;0.77;0.70;;;;;;;;;;5054973;28;20043;-63
2024/02/24 10:16:03;;;;;;;1.85;0.90;;;;;;;;;;5071524;28;20037;-63
2024/02/24 10:18:34;;;;;;;3.90;0.90;;;;;;;;;;5072485;28;20040;-62
2024/02/24 10:21:01;;;;;;;1.27;0.75;;;;;;;;;;5071969;28;20047;-60
2024/02/24 10:23:27;;;;;;;1.70;0.70;;;;;;;;;;5070073;28;20521;-62
2024/02/24 10:25:57;;;;;;;1.23;0.63;;;;;;;;;;5074613;28;20033;-62
2024/02/24 10:28:25;;;;;;;0.93;0.52;;;;;;;;;;5070216;28;20052;-60
2024/02/24 10:30:52;;;;;;;0.60;0.60;;;;;;;;;;5077903;28;20024;-61
2024/02/24 10:33:18;;;;;;;1.55;0.50;;;;;;;;;;5103811;22;20411;-58
2024/02/24 10:35:46;;;;;;;1.85;0.90;;;;;;;;;;5073050;28;20039;-58
2024/02/24 10:38:13;;;;;;;1.17;0.85;;;;;;;;;;5063853;28;20505;-59
2024/02/24 10:40:40;;;;;;;1.73;1.02;;;;;;;;;;5074684;28;20377;-58
2024/02/24 10:43:07;;;;;;;1.08;0.80;;;;;;;;;;5057914;28;20080;-59
2024/02/24 10:45:33;;;;;;;1.60;0.80;;;;;;;;;;5062348;28;20059;-59
2024/02/24 10:48:00;;;;;;;1.23;0.82;;;;;;;;;;5067680;28;20040;-59
2024/02/24 10:50:26;;;;;;;2.35;0.70;;;;;;;;;;5067949;28;20044;-60
2024/02/24 10:52:54;;;;;;;0.60;0.60;;;;;;;;;;5069980;28;20039;-60
2024/02/24 10:55:23;;;;;;;1.50;0.82;;;;;;;;;;5067292;28;20033;-60
2024/02/24 10:57:53;;;;;;;1.15;0.63;;;;;;;;;;5064060;28;20496;-60
2024/02/24 11:00:35;;;;;;;2.13;0.70;;;;;;;;;;5065380;28;20049;-60
2024/02/24 11:03:04;;;;;;;1.95;0.50;;;;;;;;;;5069612;28;20036;-60
2024/02/24 11:05:32;;;;;;;1.23;0.75;;;;;;;;;;5064065;28;20392;-60
2024/02/24 11:08:00;;;;;;;0.93;0.60;;;;;;;;;;5066613;28;20052;-61
2024/02/24 11:10:33;;;;;;;1.17;0.50;;;;;;;;;;5069824;28;20490;-61
2024/02/24 11:13:01;;;;;;;1.08;0.50;;;;;;;;;;5068144;28;20044;-60
2024/02/24 11:15:28;;;;;;;1.08;0.55;;;;;;;;;;5069587;28;20046;-61
2024/02/24 11:17:58;;;;;;;1.90;0.75;;;;;;;;;;5069556;28;20032;-61
2024/02/24 11:20:33;;;;;;;1.92;0.82;;;;;;;;;;5072188;28;20028;-61
2024/02/24 11:23:22;;;;;;;1.20;0.85;;;;;;;;;;5069584;28;20040;-60
2024/02/24 11:26:08;;;;;;;0.57;0.57;;;;;;;;;;5065910;28;20043;-61
2024/02/24 11:28:42;;;;;;;0.85;0.52;;;;;;;;;;5065551;28;20032;-61
2024/02/24 11:31:08;;;;;;;1.65;0.57;;;;;;;;;;5066389;28;20059;-60
2024/02/24 11:33:38;;;;;;;0.68;0.65;;;;;;;;;;5071528;28;20040;-60
2024/02/24 11:36:05;;;;;;;1.38;0.80;;;;;;;;;;5068720;28;20052;-60
2024/02/24 11:38:32;;;;;;;1.88;0.70;;;;;;;;;;5069283;28;20053;-61
2024/02/24 11:41:06;;;;;;;1.17;0.60;;;;;;;;;;5066569;28;20044;-61
2024/02/24 11:43:32;;;;;;;0.75;0.57;;;;;;;;;;5066662;28;20044;-60
2024/02/24 11:45:59;;;;;;;2.00;0.60;;;;;;;;;;5068927;28;20040;-60
2024/02/24 11:48:25;;;;;;;2.10;0.65;;;;;;;;;;5069004;28;20040;-61
2024/02/24 11:50:52;;;;;;;1.10;0.60;;;;;;;;;;5068157;28;20535;-60
2024/02/24 11:53:19;;;;;;;1.17;0.77;;;;;;;;;;5074251;28;20051;-60
2024/02/24 11:55:47;;;;;;;1.00;0.70;;;;;;;;;;5069202;28;20039;-60
2024/02/24 11:58:14;;;;;;;0.88;0.60;;;;;;;;;;5068213;28;20052;-60
2024/02/24 12:00:41;;;;;;;2.25;0.63;;;;;;;;;;5065875;28;20035;-60
2024/02/24 12:03:15;;;;;;;1.25;0.60;;;;;;;;;;5066245;28;20040;-60
2024/02/24 12:05:42;;;;;;;1.33;0.60;;;;;;;;;;5067343;28;20400;-60
2024/02/24 12:08:14;;;;;;;2.53;1.13;;;;;;;;;;5068154;28;20052;-60
2024/02/24 12:10:40;;;;;;;1.45;0.70;;;;;;;;;;5067430;28;20036;-60
2024/02/24 12:13:10;;;;;;;2.10;0.70;;;;;;;;;;5069677;28;20032;-61
2024/02/24 12:15:41;;;;;;;0.85;0.40;;;;;;;;;;5068842;28;20044;-60
2024/02/24 12:18:07;;;;;;;1.55;0.40;;;;;;;;;;5067459;28;20041;-61
2024/02/24 12:20:37;;;;;;;0.60;0.43;;;;;;;;;;5051735;28;20068;-61
2024/02/24 12:23:05;;;;;;;0.80;0.52;;;;;;;;;;5067924;28;20044;-60
2024/02/24 12:25:31;;;;;;;1.55;0.90;;;;;;;;;;5067692;28;20040;-60
2024/02/24 12:27:59;;;;;;;0.57;0.57;;;;;;;;;;5066984;28;20036;-60
2024/02/24 12:30:34;;;;;;;0.55;0.40;;;;;;;;;;5069123;28;20049;-60
2024/02/24 12:33:02;;;;;;;1.00;0.55;;;;;;;;;;5068327;28;20055;-60
2024/02/24 12:35:29;;;;;;;3.15;0.88;;;;;;;;;;5067565;28;20032;-59
2024/02/24 12:37:55;;;;;;;4.90;1.15;;;;;;;;;;5067606;28;20048;-60
2024/02/24 12:40:29;;;;;;;1.20;0.90;;;;;;;;;;5064562;28;20052;-62
2024/02/24 12:42:56;;;;;;;2.38;0.68;;;;;;;;;;5069168;28;20033;-61
2024/02/24 12:45:23;;;;;;;1.23;0.55;;;;;;;;;;5064039;28;20056;-61
2024/02/24 12:47:49;;;;;;;2.72;0.73;;;;;;;;;;5062102;28;20048;-62
2024/02/24 12:50:24;;;;;;;2.42;0.52;;;;;;;;;;5074038;28;20118;-62
2024/02/24 12:52:52;;;;;;;1.70;0.60;;;;;;;;;;5075279;28;20033;-62
2024/02/24 12:55:19;;;;;;;0.63;0.53;;;;;;;;;;5072985;28;20043;-62
2024/02/24 12:57:45;;;;;;;1.40;0.70;;;;;;;;;;5071738;28;20508;-62
2024/02/24 13:00:12;;;;;;;3.42;1.17;;;;;;;;;;5072007;28;20043;-62
2024/02/24 13:02:39;;;;;;;2.25;0.73;;;;;;;;;;5073869;28;20039;-63
2024/02/24 13:05:06;;;;;;;1.67;0.82;;;;;;;;;;5077972;28;20041;-63
2024/02/24 13:07:33;;;;;;;1.25;0.57;;;;;;;;;;5063768;28;20048;-60
2024/02/24 13:09:59;;;;;;;2.42;0.90;;;;;;;;;;5070156;28;20401;-61
2024/02/24 13:12:25;;;;;;;1.38;0.70;;;;;;;;;;5071910;28;20045;-62
2024/02/24 13:14:52;;;;;;;0.68;0.45;;;;;;;;;;5064725;28;20033;-59
2024/02/24 13:17:20;;;;;;;1.00;0.50;;;;;;;;;;5069527;28;20051;-61
2024/02/24 13:19:46;;;;;;;2.75;0.80;;;;;;;;;;5058285;28;20052;-60
2024/02/24 13:22:12;;;;;;;2.75;0.50;;;;;;;;;;5064438;28;20040;-60
2024/02/24 13:24:38;;;;;;;2.28;0.93;;;;;;;;;;5070385;28;20056;-61
2024/02/24 13:27:05;;;;;;;5.18;0.75;;;;;;;;;;5070731;28;20512;-60
2024/02/24 13:29:31;;;;;;;1.02;0.60;;;;;;;;;;5072575;28;20043;-59
2024/02/24 13:31:57;;;;;;;1.90;0.90;;;;;;;;;;5061621;28;20040;-60
2024/02/24 13:34:23;;;;;;;1.65;1.02;;;;;;;;;;5072766;28;20051;-59
2024/02/24 13:36:49;;;;;;;0.73;0.73;;;;;;;;;;5071402;28;20040;-61
2024/02/24 13:39:16;;;;;;;1.17;0.70;;;;;;;;;;5074504;28;20048;-58
2024/02/24 13:41:42;;;;;;;0.85;0.70;;;;;;;;;;5067090;28;20040;-61
2024/02/24 13:44:12;;;;;;;1.30;0.73;;;;;;;;;;5067580;28;20040;-59
2024/02/24 13:46:46;;;;;;;1.10;1.00;;;;;;;;;;5067975;28;20497;-59
2024/02/24 13:49:12;;;;;;;1.15;0.52;;;;;;;;;;5072159;28;20056;-59
2024/02/24 13:51:40;;;;;;;2.03;0.80;;;;;;;;;;5062817;28;20037;-58
2024/02/24 13:54:06;;;;;;;0.95;0.70;;;;;;;;;;5068563;28;20044;-59
2024/02/24 13:56:32;;;;;;;0.85;0.57;;;;;;;;;;5070586;28;20055;-59
2024/02/24 13:59:01;;;;;;;1.00;0.50;;;;;;;;;;5070190;28;20044;-58
2024/02/24 14:01:28;;;;;;;1.40;0.75;;;;;;;;;;5069041;28;20353;-59
2024/02/24 14:03:54;;;;;;;2.60;1.00;;;;;;;;;;5069930;28;20025;-58
2024/02/24 14:06:20;;;;;;;2.10;0.80;;;;;;;;;;5069831;28;20052;-58
2024/02/24 14:08:46;;;;;;;0.98;0.75;;;;;;;;;;5068524;28;20043;-59
2024/02/24 14:11:12;;;;;;;2.13;0.70;;;;;;;;;;5066907;28;20068;-59
2024/02/24 14:13:38;;;;;;;2.38;0.80;;;;;;;;;;5070375;28;20055;-59
2024/02/24 14:16:05;;;;;;;0.77;0.68;;;;;;;;;;5073005;28;21243;-59
2024/02/24 14:18:35;;;;;;;1.70;1.10;;;;;;;;;;5072619;28;20033;-58
2024/02/24 14:21:02;;;;;;;2.38;1.15;;;;;;;;;;5072336;28;20040;-58
2024/02/24 14:23:28;;;;;;;5.10;2.80;;;;;;;;;;5063480;28;20044;-59
2024/02/24 14:25:54;;;;;;;1.63;1.20;;;;;;;;;;5067853;28;20072;-59
2024/02/24 14:28:20;;;;;;;3.33;1.00;;;;;;;;;;5075059;28;20032;-60
2024/02/24 14:30:47;;;;;;;5.03;2.38;;;;;;;;;;5075050;28;20059;-58
2024/02/24 14:33:13;;;;;;;6.15;2.75;;;;;;;;;;5083180;28;20037;-58
2024/02/24 14:35:41;;;;;;;4.60;2.33;;;;;;;;;;5071676;28;20675;-58
2024/02/24 14:38:08;;;;;;;2.63;1.23;;;;;;;;;;5071372;28;20036;-60
2024/02/24 14:40:34;;;;;;;3.05;1.25;;;;;;;;;;5071734;28;20497;-59